Time;durP1;ratioP1;P1;durP2;ratioP2;P2;SDS_P1;SDS_P2;PMS_P1;PMS_P2;Temp;Humidity;BMP_temperature;BMP_pressure;BME280_temperature;BME280_humidity;BME280_pressure;Samples;Min_cycle;Max_cycle;Signal;HPM_P1;HPM_P2
2021/12/06 00:00:31;;;;;;;23.95;14.95;;;;;;;1.04;100.00;99788.84;5032936;28;20045;-83
2021/12/06 00:03:03;;;;;;;27.13;15.05;;;;;;;1.01;100.00;99786.63;5033499;28;20053;-83
2021/12/06 00:05:32;;;;;;;24.42;14.48;;;;;;;1.04;100.00;99780.75;5033007;28;20064;-83
2021/12/06 00:08:00;;;;;;;25.65;13.95;;;;;;;1.08;100.00;99783.81;5025741;28;20050;-83
2021/12/06 00:10:28;;;;;;;26.50;14.80;;;;;;;1.04;100.00;99778.06;5027300;28;20041;-82
2021/12/06 00:12:57;;;;;;;27.65;13.07;;;;;;;1.12;100.00;99776.88;5019684;28;20083;-83
2021/12/06 00:15:30;;;;;;;21.15;12.40;;;;;;;1.18;100.00;99775.13;5033275;28;20045;-83
2021/12/06 00:18:00;;;;;;;29.83;14.82;;;;;;;1.22;100.00;99764.69;5033111;28;20496;-83
2021/12/06 00:20:29;;;;;;;24.48;13.85;;;;;;;1.42;100.00;99767.00;5032915;28;20505;-83
2021/12/06 00:22:57;;;;;;;21.67;13.32;;;;;;;1.37;100.00;99756.91;5027286;28;20370;-82
2021/12/06 00:25:25;;;;;;;25.83;13.95;;;;;;;1.40;100.00;99767.22;5024078;28;20045;-83
2021/12/06 00:27:53;;;;;;;25.25;13.00;;;;;;;1.41;100.00;99773.44;5032808;28;20369;-82
2021/12/06 00:30:22;;;;;;;25.10;13.20;;;;;;;1.60;100.00;99769.50;5032852;28;20060;-82
2021/12/06 00:32:50;;;;;;;23.65;13.05;;;;;;;1.65;100.00;99770.66;5014008;28;20041;-83
2021/12/06 00:35:22;;;;;;;27.10;12.52;;;;;;;1.69;100.00;99779.91;5015484;28;20489;-83
2021/12/06 00:38:00;;;;;;;26.77;13.85;;;;;;;1.72;100.00;99776.72;5012970;28;20046;-82
2021/12/06 00:40:32;;;;;;;25.67;13.65;;;;;;;1.64;100.00;99774.41;5011663;28;20049;-83
2021/12/06 00:43:01;;;;;;;27.80;14.35;;;;;;;1.73;100.00;99772.97;5028154;28;20052;-83
2021/12/06 00:45:29;;;;;;;23.60;13.65;;;;;;;1.57;100.00;99777.25;5014972;28;20049;-83
2021/12/06 00:47:57;;;;;;;24.02;13.35;;;;;;;1.52;100.00;99777.16;5032416;28;20049;-83
2021/12/06 00:50:28;;;;;;;22.63;13.68;;;;;;;1.64;100.00;99783.31;5032833;28;20501;-83
2021/12/06 00:52:56;;;;;;;25.45;14.02;;;;;;;1.58;100.00;99781.59;5014713;28;20038;-83
2021/12/06 00:55:24;;;;;;;23.20;13.32;;;;;;;1.43;100.00;99790.19;5032388;28;20034;-83
2021/12/06 00:57:54;;;;;;;23.25;12.82;;;;;;;1.44;100.00;99798.06;4995115;28;20406;-83
2021/12/06 01:00:29;;;;;;;27.23;13.93;;;;;;;1.34;100.00;99801.34;5031043;28;20041;-83
2021/12/06 01:02:57;;;;;;;21.88;12.20;;;;;;;1.41;100.00;99808.50;5032383;28;20049;-82
2021/12/06 01:05:26;;;;;;;25.75;14.15;;;;;;;1.39;100.00;99807.91;5013894;28;20046;-83
2021/12/06 01:07:54;;;;;;;21.23;13.50;;;;;;;1.41;100.00;99819.28;5025381;28;20045;-83
2021/12/06 01:10:25;;;;;;;22.23;12.57;;;;;;;1.43;100.00;99819.84;5025591;28;20397;-84
2021/12/06 01:12:57;;;;;;;22.65;12.65;;;;;;;1.44;100.00;99826.88;5032411;28;20037;-83
2021/12/06 01:15:27;;;;;;;23.67;12.30;;;;;;;1.48;100.00;99825.34;5032165;28;20052;-83
2021/12/06 01:18:01;;;;;;;23.17;13.00;;;;;;;1.44;100.00;99822.31;5031791;28;20060;-83
2021/12/06 01:20:35;;;;;;;23.98;11.30;;;;;;;1.51;100.00;99824.88;5032148;28;20049;-83
2021/12/06 01:23:10;;;;;;;18.67;11.55;;;;;;;1.56;100.00;99826.88;5030695;28;20042;-83
2021/12/06 01:31:09;;;;;;;22.30;12.40;;;;;;;1.59;100.00;99835.28;5027525;28;20056;-83
2021/12/06 01:34:03;;;;;;;21.80;10.98;;;;;;;1.58;100.00;99830.97;5010932;28;20393;-83
2021/12/06 01:39:18;;;;;;;17.30;10.60;;;;;;;1.59;100.00;99842.56;5001581;28;20416;-83
2021/12/06 01:41:58;;;;;;;17.35;10.18;;;;;;;1.97;100.00;99834.94;5014181;28;20481;-83
2021/12/06 01:44:32;;;;;;;19.55;11.27;;;;;;;1.83;99.81;99842.50;5014125;28;20037;-83
2021/12/06 01:47:23;;;;;;;19.95;10.82;;;;;;;1.77;100.00;99828.09;5014261;28;20513;-84
2021/12/06 01:49:55;;;;;;;17.10;10.10;;;;;;;1.69;100.00;99840.06;4996976;28;20046;-83
2021/12/06 01:52:37;;;;;;;20.40;10.25;;;;;;;1.66;100.00;99827.06;5014346;28;20045;-83
2021/12/06 01:55:08;;;;;;;16.98;9.35;;;;;;;1.81;100.00;99837.31;5013965;28;20496;-83
2021/12/06 01:57:38;;;;;;;19.90;11.45;;;;;;;1.77;100.00;99828.09;5014217;28;20072;-83
2021/12/06 02:00:15;;;;;;;16.63;9.77;;;;;;;1.79;100.00;99831.38;5013104;28;20485;-83
2021/12/06 02:02:43;;;;;;;20.10;9.68;;;;;;;1.85;100.00;99825.00;5012986;28;20049;-83
2021/12/06 02:05:21;;;;;;;16.73;9.77;;;;;;;1.98;100.00;99818.50;5027073;28;20037;-83
2021/12/06 02:07:50;;;;;;;17.40;10.13;;;;;;;2.17;99.78;99828.28;4998171;28;20041;-83
2021/12/06 02:10:20;;;;;;;19.85;10.95;;;;;;;2.29;98.86;99829.03;5006900;28;20057;-83
2021/12/06 02:12:51;;;;;;;17.35;9.63;;;;;;;2.24;99.63;99842.44;4994255;28;20058;-83
2021/12/06 02:17:59;;;;;;;18.83;10.88;;;;;;;2.31;100.00;99831.50;5013771;28;20508;-83
2021/12/06 02:20:29;;;;;;;21.90;11.68;;;;;;;2.24;100.00;99839.72;5017667;28;20041;-83
2021/12/06 02:22:59;;;;;;;20.40;10.65;;;;;;;2.18;100.00;99838.84;5013716;28;20038;-83
2021/12/06 02:25:27;;;;;;;18.88;11.05;;;;;;;2.30;100.00;99836.09;5005803;28;20049;-83
2021/12/06 02:27:57;;;;;;;19.83;11.75;;;;;;;2.30;100.00;99841.50;5028436;28;20054;-83
2021/12/06 02:30:25;;;;;;;20.58;11.55;;;;;;;2.44;100.00;99836.56;5025241;28;20476;-83
2021/12/06 02:32:56;;;;;;;20.60;11.25;;;;;;;2.40;100.00;99852.44;5034915;28;20049;-82
2021/12/06 02:35:25;;;;;;;18.75;11.43;;;;;;;2.29;100.00;99847.94;5017551;28;20401;-83
2021/12/06 02:37:57;;;;;;;22.60;12.05;;;;;;;2.20;100.00;99852.09;5016229;28;20034;-83
2021/12/06 02:40:29;;;;;;;21.83;11.77;;;;;;;2.10;100.00;99839.22;5017297;28;20489;-83
2021/12/06 02:43:01;;;;;;;18.98;11.20;;;;;;;2.11;100.00;99854.38;4999112;28;20061;-83
2021/12/06 02:45:31;;;;;;;19.70;11.20;;;;;;;2.14;100.00;99849.31;5035016;28;20390;-82
2021/12/06 02:48:04;;;;;;;21.30;11.52;;;;;;;2.17;100.00;99857.97;5014495;28;20057;-83
2021/12/06 02:50:53;;;;;;;18.48;11.35;;;;;;;2.20;100.00;99857.50;5014082;28;20482;-83
2021/12/06 02:53:23;;;;;;;16.23;10.45;;;;;;;2.21;100.00;99857.25;5031850;28;20046;-83
2021/12/06 02:55:57;;;;;;;18.42;10.43;;;;;;;2.22;100.00;99847.25;4999918;28;20049;-83
2021/12/06 02:58:55;;;;;;;21.48;11.20;;;;;;;2.17;100.00;99847.16;5032208;28;20049;-83
2021/12/06 03:01:44;;;;;;;17.30;10.70;;;;;;;2.17;100.00;99841.75;5013663;28;20049;-82
2021/12/06 03:04:12;;;;;;;20.98;12.02;;;;;;;2.15;100.00;99845.53;4989483;28;20042;-83
2021/12/06 03:06:41;;;;;;;18.63;12.07;;;;;;;2.15;100.00;99850.09;5016840;28;20056;-82
2021/12/06 03:09:15;;;;;;;19.52;11.80;;;;;;;2.18;100.00;99846.09;5000117;28;20049;-83
2021/12/06 03:11:52;;;;;;;18.23;11.80;;;;;;;2.19;100.00;99853.97;5013679;28;20113;-84
2021/12/06 03:14:25;;;;;;;19.58;11.45;;;;;;;2.16;100.00;99851.75;5014356;28;20472;-83
2021/12/06 03:16:59;;;;;;;23.45;12.07;;;;;;;2.19;100.00;99853.16;5013570;28;20050;-82
2021/12/06 03:19:29;;;;;;;18.02;11.10;;;;;;;2.23;100.00;99849.72;5032175;28;20052;-83
2021/12/06 03:21:57;;;;;;;20.20;12.02;;;;;;;2.22;100.00;99849.97;4996745;28;20075;-82
2021/12/06 03:24:25;;;;;;;21.52;12.10;;;;;;;2.14;100.00;99857.41;5013448;28;20052;-83
2021/12/06 03:26:54;;;;;;;23.15;12.48;;;;;;;2.12;100.00;99856.00;5016375;28;20049;-83
2021/12/06 03:29:23;;;;;;;19.92;11.75;;;;;;;2.11;100.00;99859.75;5033194;28;20042;-83
2021/12/06 03:31:51;;;;;;;22.50;12.20;;;;;;;2.08;100.00;99866.47;5034094;28;20046;-83
2021/12/06 03:34:20;;;;;;;21.80;12.80;;;;;;;2.06;100.00;99865.06;5016415;28;20050;-83
2021/12/06 03:36:49;;;;;;;20.23;11.68;;;;;;;2.07;100.00;99855.91;5034176;28;20045;-83
2021/12/06 03:39:23;;;;;;;23.90;12.25;;;;;;;2.23;100.00;99862.41;4999613;28;20497;-82
2021/12/06 03:41:55;;;;;;;23.85;12.82;;;;;;;2.20;100.00;99865.59;5016526;28;20056;-83
2021/12/06 03:44:26;;;;;;;22.65;12.13;;;;;;;2.14;100.00;99861.97;5031434;28;20050;-83
2021/12/06 03:47:10;;;;;;;23.50;12.63;;;;;;;2.28;100.00;99866.03;5028398;28;20054;-83
2021/12/06 03:49:42;;;;;;;23.83;12.63;;;;;;;2.37;100.00;99869.16;5007391;28;20409;-83
2021/12/06 03:52:13;;;;;;;22.42;12.07;;;;;;;2.33;100.00;99872.56;4993083;28;20050;-82
2021/12/06 03:54:46;;;;;;;22.65;12.73;;;;;;;2.31;100.00;99874.69;5004281;28;20042;-82
2021/12/06 03:57:15;;;;;;;25.92;13.32;;;;;;;2.30;100.00;99871.19;5009540;28;20053;-82
2021/12/06 03:59:47;;;;;;;21.63;13.02;;;;;;;2.31;100.00;99875.53;5019500;28;20046;-82
2021/12/06 04:02:16;;;;;;;22.90;13.13;;;;;;;2.26;100.00;99876.22;5009326;28;20042;-84
2021/12/06 04:04:46;;;;;;;22.83;14.45;;;;;;;2.23;100.00;99878.59;5018548;28;20053;-82
2021/12/06 04:07:14;;;;;;;25.60;13.50;;;;;;;2.11;100.00;99887.56;5026078;28;20057;-82
2021/12/06 04:09:43;;;;;;;24.60;13.90;;;;;;;1.93;100.00;99891.28;5000110;28;20049;-83
2021/12/06 04:12:12;;;;;;;23.95;13.93;;;;;;;1.90;100.00;99893.63;5012675;28;20057;-82
2021/12/06 04:14:41;;;;;;;24.65;13.32;;;;;;;1.81;100.00;99893.97;5013703;28;20060;-82
2021/12/06 04:17:12;;;;;;;22.80;12.80;;;;;;;1.78;100.00;99896.34;5000792;28;20050;-82
2021/12/06 04:19:43;;;;;;;26.10;12.90;;;;;;;1.67;100.00;99888.03;5028302;28;20477;-82
2021/12/06 04:22:13;;;;;;;24.70;12.45;;;;;;;1.74;100.00;99904.94;5009088;28;20046;-82
2021/12/06 04:24:41;;;;;;;21.55;11.63;;;;;;;1.69;100.00;99917.47;5007830;28;20039;-82
2021/12/06 04:27:14;;;;;;;18.65;11.50;;;;;;;1.67;100.00;99904.22;5000368;28;20065;-83
2021/12/06 04:29:45;;;;;;;;;;;;;;;1.68;100.00;99911.28;5011021;28;20046;-82
2021/12/06 04:32:16;;;;;;;19.50;11.45;;;;;;;1.69;100.00;99906.69;5012494;28;19921;-82
2021/12/06 04:34:44;;;;;;;20.95;12.00;;;;;;;1.71;100.00;99900.00;5008278;28;20049;-82
2021/12/06 04:37:14;;;;;;;16.98;10.18;;;;;;;1.66;100.00;99905.28;4985969;28;20050;-82
2021/12/06 04:39:43;;;;;;;22.17;11.57;;;;;;;1.58;100.00;99913.75;5010818;28;20406;-83
2021/12/06 04:42:11;;;;;;;19.40;11.43;;;;;;;1.47;100.00;99910.00;5008537;28;20512;-83
2021/12/06 04:44:39;;;;;;;23.15;11.50;;;;;;;1.41;100.00;99913.66;5008371;28;20050;-82
2021/12/06 04:47:08;;;;;;;21.15;11.32;;;;;;;1.32;100.00;99910.50;5008453;28;20045;-83
2021/12/06 04:49:37;;;;;;;17.35;10.57;;;;;;;1.28;100.00;99918.19;5005482;28;20046;-82
2021/12/06 04:52:08;;;;;;;20.75;11.82;;;;;;;1.24;100.00;99914.34;5008341;28;20038;-83
2021/12/06 04:54:43;;;;;;;18.65;11.00;;;;;;;1.38;100.00;99908.72;5017936;28;20042;-82
2021/12/06 04:57:25;;;;;;;18.27;11.23;;;;;;;1.30;100.00;99910.72;4999864;28;20489;-83
2021/12/06 04:59:58;;;;;;;19.70;10.93;;;;;;;1.23;100.00;99919.97;5012214;28;20052;-83
2021/12/06 05:02:32;;;;;;;18.75;10.95;;;;;;;1.11;100.00;99922.69;5008287;28;20050;-83
2021/12/06 05:05:09;;;;;;;18.50;11.00;;;;;;;1.01;100.00;99918.66;5019653;28;20405;-83
2021/12/06 05:07:42;;;;;;;19.45;10.98;;;;;;;0.91;100.00;99938.09;4996900;28;20394;-83
2021/12/06 05:10:13;;;;;;;20.20;10.95;;;;;;;0.77;100.00;99918.63;5016330;28;20065;-83
2021/12/06 05:12:43;;;;;;;17.63;10.10;;;;;;;0.77;100.00;99926.72;5025713;28;20398;-83
2021/12/06 05:15:13;;;;;;;20.25;10.93;;;;;;;0.74;100.00;99927.16;5011218;28;20046;-83
2021/12/06 05:17:43;;;;;;;21.45;11.52;;;;;;;0.71;100.00;99935.72;5011240;28;20421;-83
2021/12/06 05:20:15;;;;;;;18.30;11.10;;;;;;;0.66;100.00;99936.41;5012324;28;20042;-83
2021/12/06 05:22:46;;;;;;;17.95;10.60;;;;;;;0.62;100.00;99939.78;5010805;28;20037;-83
2021/12/06 05:25:15;;;;;;;19.10;10.48;;;;;;;0.59;100.00;99938.34;5012057;28;20046;-82
2021/12/06 05:27:43;;;;;;;21.55;11.85;;;;;;;0.59;100.00;99946.44;5009513;28;20053;-83
2021/12/06 05:30:15;;;;;;;21.48;10.80;;;;;;;0.59;100.00;99948.31;5007178;28;20065;-83
2021/12/06 05:32:43;;;;;;;22.35;11.95;;;;;;;0.66;100.00;99951.72;5017824;28;20046;-82
2021/12/06 05:35:13;;;;;;;21.70;12.38;;;;;;;0.64;100.00;99956.53;5000968;28;20054;-83
2021/12/06 05:37:44;;;;;;;21.27;11.32;;;;;;;0.58;100.00;99954.75;5011276;28;20049;-85
2021/12/06 05:40:19;;;;;;;23.60;11.85;;;;;;;0.49;100.00;99960.44;4959461;28;20050;-83
2021/12/06 05:42:47;;;;;;;21.77;11.80;;;;;;;0.49;100.00;99973.09;5006772;28;20056;-83
2021/12/06 05:45:18;;;;;;;21.98;12.05;;;;;;;0.50;100.00;99980.13;5014575;28;20054;-83
2021/12/06 05:47:46;;;;;;;24.58;13.65;;;;;;;0.48;100.00;99983.03;5003249;28;20064;-82
2021/12/06 05:50:16;;;;;;;24.05;12.75;;;;;;;0.46;100.00;99987.84;5017085;28;20052;-82
2021/12/06 05:52:45;;;;;;;22.10;12.55;;;;;;;0.42;100.00;99978.56;5020122;28;20052;-83
2021/12/06 05:55:13;;;;;;;27.20;12.60;;;;;;;0.40;100.00;99984.16;5028496;28;20041;-83
2021/12/06 05:57:42;;;;;;;23.98;12.57;;;;;;;0.35;100.00;99981.34;5032643;28;20045;-84
2021/12/06 06:00:13;;;;;;;20.15;11.07;;;;;;;0.38;100.00;99985.44;5008835;28;20049;-83
2021/12/06 06:02:42;;;;;;;26.13;12.75;;;;;;;0.42;100.00;99999.28;5028426;28;20416;-83
2021/12/06 06:05:10;;;;;;;21.48;12.50;;;;;;;0.38;100.00;99993.53;5020377;28;20055;-83
2021/12/06 06:07:38;;;;;;;27.20;13.77;;;;;;;0.36;100.00;100001.00;5006803;28;20045;-84
2021/12/06 06:10:07;;;;;;;27.35;14.38;;;;;;;0.57;100.00;100005.09;5025820;28;20512;-84
2021/12/06 06:12:35;;;;;;;22.73;12.32;;;;;;;0.64;100.00;99999.63;5021513;28;20042;-83
2021/12/06 06:15:04;;;;;;;29.60;13.82;;;;;;;0.55;100.00;100009.06;5020375;28;20034;-84
2021/12/06 06:17:39;;;;;;;22.52;13.63;;;;;;;0.57;100.00;100020.41;5010233;28;20385;-85
2021/12/06 06:20:15;;;;;;;23.40;14.07;;;;;;;0.59;100.00;100021.03;5013109;28;20042;-84
2021/12/06 06:22:43;;;;;;;26.77;13.82;;;;;;;0.53;100.00;100028.97;5011738;28;20060;-84
2021/12/06 06:25:12;;;;;;;22.98;13.75;;;;;;;0.49;100.00;100026.97;5013840;28;20050;-86
2021/12/06 06:27:40;;;;;;;24.45;13.15;;;;;;;0.42;100.00;100024.34;5013973;28;20042;-85
2021/12/06 06:30:08;;;;;;;24.05;12.55;;;;;;;0.45;100.00;100029.28;5019742;28;20397;-84
2021/12/06 06:32:36;;;;;;;25.63;13.98;;;;;;;0.52;100.00;100027.31;5010184;28;20413;-84
2021/12/06 06:35:06;;;;;;;24.65;12.70;;;;;;;0.59;100.00;100023.72;5022105;28;20042;-85
2021/12/06 06:37:35;;;;;;;26.58;13.35;;;;;;;0.63;100.00;100030.31;5015133;28;20042;-87
2021/12/06 06:40:04;;;;;;;20.77;12.63;;;;;;;0.50;100.00;100025.91;5018737;28;20042;-86
2021/12/06 06:42:33;;;;;;;27.60;13.93;;;;;;;0.69;100.00;100029.41;5031189;28;20056;-86
2021/12/06 06:45:22;;;;;;;22.35;13.45;;;;;;;0.60;100.00;100030.75;5044582;28;20034;-85
2021/12/06 06:47:51;;;;;;;;;;;;;;;0.50;100.00;100025.91;5044825;28;20037;-89
2021/12/06 06:50:20;;;;;;;19.48;11.75;;;;;;;0.42;100.00;100036.97;5011261;28;19925;-90
2021/12/06 06:52:49;;;;;;;19.48;11.55;;;;;;;0.36;100.00;100033.31;5008536;28;20045;-88
2021/12/06 06:55:18;;;;;;;21.27;12.48;;;;;;;0.33;100.00;100047.22;5017091;28;20374;-89
2021/12/06 06:57:47;;;;;;;21.05;12.18;;;;;;;0.38;100.00;100040.13;4973829;28;20053;-85
2021/12/06 07:00:21;;;;;;;27.85;14.82;;;;;;;0.48;100.00;100044.97;5023310;28;20056;-84
2021/12/06 07:02:50;;;;;;;25.27;13.32;;;;;;;0.51;100.00;100044.53;5020746;28;20393;-84
2021/12/06 07:05:18;;;;;;;22.60;12.27;;;;;;;0.51;100.00;100039.16;5012018;28;20034;-84
2021/12/06 07:07:46;;;;;;;23.33;12.57;;;;;;;0.53;100.00;100041.59;5014291;28;20041;-85
2021/12/06 07:10:14;;;;;;;22.20;11.70;;;;;;;0.48;100.00;100050.34;5026360;28;20053;-93
2021/12/06 07:12:48;;;;;;;21.10;12.10;;;;;;;0.58;100.00;100054.41;5028969;28;20726;-89
2021/12/06 07:15:21;;;;;;;21.10;11.82;;;;;;;0.58;100.00;100057.09;4988217;28;20516;-88
2021/12/06 07:17:51;;;;;;;19.23;11.27;;;;;;;0.66;100.00;100056.78;5012587;28;20520;-83
2021/12/06 07:20:20;;;;;;;19.63;11.02;;;;;;;0.55;100.00;100055.66;5024561;28;20052;-84
2021/12/06 07:22:52;;;;;;;21.90;11.77;;;;;;;0.56;100.00;100072.63;5020179;28;20050;-85
2021/12/06 07:25:26;;;;;;;30.42;11.63;;;;;;;0.51;100.00;100066.06;5003963;28;20041;-88
2021/12/06 07:28:20;;;;;;;24.27;11.65;;;;;;;0.55;100.00;100077.22;5193047;22;20058;-76
2021/12/06 07:30:48;;;;;;;25.25;11.77;;;;;;;0.60;100.00;100080.06;4991720;28;20046;-76
2021/12/06 07:33:16;;;;;;;20.45;10.35;;;;;;;0.65;100.00;100082.06;4994284;28;20061;-76
2021/12/06 07:35:44;;;;;;;20.27;10.57;;;;;;;0.72;100.00;100084.66;4994145;28;20041;-74
2021/12/06 07:38:12;;;;;;;20.67;10.80;;;;;;;0.88;100.00;100083.22;4994161;28;20417;-75
2021/12/06 07:40:40;;;;;;;19.65;10.25;;;;;;;1.31;100.00;100082.19;4994420;28;20050;-75
2021/12/06 07:43:08;;;;;;;21.08;11.27;;;;;;;1.52;100.00;100085.41;4992450;28;20047;-75
2021/12/06 07:45:36;;;;;;;21.30;11.38;;;;;;;1.66;100.00;100087.91;4994296;28;20053;-75
2021/12/06 07:48:06;;;;;;;18.33;10.73;;;;;;;1.91;100.00;100086.88;4993465;28;20043;-75
2021/12/06 07:50:33;;;;;;;21.00;11.73;;;;;;;2.08;100.00;100097.75;4994185;28;20042;-75
2021/12/06 07:53:02;;;;;;;37.47;12.75;;;;;;;2.24;100.00;100097.06;4994269;28;20691;-77
2021/12/06 07:55:34;;;;;;;20.95;11.52;;;;;;;2.30;98.68;100106.13;4994500;28;20047;-76
2021/12/06 07:58:06;;;;;;;24.48;10.65;;;;;;;2.42;97.43;100115.03;4993967;28;20046;-76
2021/12/06 08:00:41;;;;;;;20.08;10.07;;;;;;;2.63;96.69;100120.84;4993658;28;20051;-76
2021/12/06 08:03:12;;;;;;;18.17;9.90;;;;;;;2.84;94.46;100115.03;4980210;28;20378;-76
2021/12/06 08:05:42;;;;;;;19.00;10.15;;;;;;;2.90;94.85;100122.19;4993067;28;20043;-77
2021/12/06 08:08:17;;;;;;;20.08;9.85;;;;;;;3.05;92.94;100125.19;4993760;28;20053;-77
2021/12/06 08:10:48;;;;;;;19.40;9.90;;;;;;;3.23;92.42;100128.78;4992545;28;20038;-77
2021/12/06 08:13:21;;;;;;;18.48;9.15;;;;;;;3.36;91.10;100127.63;4994033;28;20042;-76
2021/12/06 08:15:51;;;;;;;14.23;8.00;;;;;;;3.38;88.48;100128.25;4994694;28;20049;-76
2021/12/06 08:18:19;;;;;;;13.38;7.82;;;;;;;3.57;89.19;100125.31;4993177;28;20057;-76
2021/12/06 08:20:48;;;;;;;15.52;7.43;;;;;;;3.75;86.75;100122.38;4996610;28;20408;-77
2021/12/06 08:23:16;;;;;;;12.45;7.90;;;;;;;3.95;85.17;100129.16;4992504;28;20050;-76
2021/12/06 08:25:46;;;;;;;18.17;7.32;;;;;;;4.19;84.86;100125.47;4993528;28;20497;-76
2021/12/06 08:28:15;;;;;;;16.35;8.70;;;;;;;4.36;83.92;100128.16;4993954;28;20050;-76
2021/12/06 08:30:44;;;;;;;14.43;7.50;;;;;;;4.47;82.90;100138.06;5031975;28;20068;-77
2021/12/06 08:33:13;;;;;;;16.42;7.25;;;;;;;4.74;81.65;100140.03;5032320;28;20048;-77
2021/12/06 08:35:46;;;;;;;11.98;6.80;;;;;;;4.83;81.43;100138.53;5032498;28;20476;-76
2021/12/06 08:38:15;;;;;;;13.52;7.60;;;;;;;5.08;80.80;100145.31;5032403;28;20054;-76
2021/12/06 08:40:46;;;;;;;14.40;7.32;;;;;;;5.16;79.88;100148.66;5032691;28;20045;-76
2021/12/06 08:43:17;;;;;;;10.50;7.10;;;;;;;5.36;79.48;100148.06;5030381;28;20492;-76
2021/12/06 08:45:50;;;;;;;11.43;6.57;;;;;;;5.50;77.88;100145.75;5032234;28;20050;-76
2021/12/06 08:48:20;;;;;;;9.50;6.33;;;;;;;5.68;77.51;100158.16;5032016;28;20049;-76
2021/12/06 08:50:48;;;;;;;12.50;6.10;;;;;;;5.87;78.29;100150.41;5031978;28;20310;-77
2021/12/06 08:53:16;;;;;;;8.57;5.68;;;;;;;6.13;76.86;100158.00;5032229;28;20492;-76
2021/12/06 08:55:44;;;;;;;10.77;5.90;;;;;;;6.26;76.14;100165.69;5032400;28;20492;-76
2021/12/06 08:58:12;;;;;;;12.40;6.55;;;;;;;6.29;75.12;100165.19;5031675;28;20133;-77
2021/12/06 09:00:41;;;;;;;10.65;6.90;;;;;;;6.54;76.20;100177.28;5032155;28;20038;-77
2021/12/06 09:03:11;;;;;;;12.43;6.82;;;;;;;6.67;72.89;100177.91;4997862;28;20059;-77
2021/12/06 09:05:43;;;;;;;11.35;7.53;;;;;;;6.90;72.28;100184.00;5032207;28;20049;-77
2021/12/06 09:08:11;;;;;;;15.63;8.35;;;;;;;6.95;71.67;100190.28;5031216;28;20400;-76
2021/12/06 09:10:47;;;;;;;13.52;7.40;;;;;;;7.06;72.96;100184.88;5030887;28;20053;-76
2021/12/06 09:13:15;;;;;;;16.75;7.95;;;;;;;7.23;70.77;100190.94;5031598;28;20060;-77
2021/12/06 09:15:44;;;;;;;14.20;7.25;;;;;;;7.25;70.33;100199.63;5031808;28;20502;-77
2021/12/06 09:18:12;;;;;;;11.90;7.38;;;;;;;7.49;70.07;100210.06;5031248;28;20053;-77
2021/12/06 09:20:43;;;;;;;12.52;7.20;;;;;;;7.52;70.14;100212.25;5031658;28;20049;-78
2021/12/06 09:23:12;;;;;;;13.60;7.50;;;;;;;7.68;67.25;100223.19;4998263;28;20041;-77
2021/12/06 09:25:42;;;;;;;17.52;7.18;;;;;;;7.97;64.37;100224.59;5030882;28;20516;-77
2021/12/06 09:28:13;;;;;;;13.68;7.82;;;;;;;8.15;66.76;100220.50;5030890;28;20037;-77
2021/12/06 09:30:44;;;;;;;12.77;7.65;;;;;;;8.18;63.87;100228.16;5031519;28;20056;-77
2021/12/06 09:33:14;;;;;;;12.57;7.35;;;;;;;8.50;61.69;100227.03;5031596;28;20053;-77
2021/12/06 09:35:46;;;;;;;16.98;7.57;;;;;;;8.90;62.61;100229.19;5031048;28;20061;-77
2021/12/06 09:38:18;;;;;;;13.07;7.90;;;;;;;8.87;61.35;100236.00;5031352;28;20049;-77
2021/12/06 09:40:50;;;;;;;14.90;7.72;;;;;;;8.87;62.07;100242.28;5031577;28;20053;-77
2021/12/06 09:43:19;;;;;;;13.10;8.32;;;;;;;8.80;62.44;100236.28;5018075;28;20388;-77
2021/12/06 09:45:48;;;;;;;16.13;8.20;;;;;;;8.93;64.34;100245.81;5031344;28;20049;-77
2021/12/06 09:48:17;;;;;;;13.68;8.15;;;;;;;8.75;60.65;100255.38;5031263;28;20037;-77
2021/12/06 09:50:50;;;;;;;14.00;6.07;;;;;;;8.95;61.22;100253.72;5030470;28;20072;-77
2021/12/06 09:53:21;;;;;;;14.32;6.38;;;;;;;8.76;59.89;100243.41;5031001;28;20045;-77
2021/12/06 09:55:52;;;;;;;14.73;7.13;;;;;;;8.71;59.61;100251.59;5031470;28;20058;-77
2021/12/06 09:58:20;;;;;;;12.82;6.35;;;;;;;8.64;58.14;100256.53;5030972;28;20073;-77
2021/12/06 10:00:53;;;;;;;13.10;7.43;;;;;;;8.65;59.33;100239.06;5031245;28;20041;-77
2021/12/06 10:03:26;;;;;;;12.85;7.10;;;;;;;8.70;59.35;100239.84;5013566;28;20045;-77
2021/12/06 10:06:01;;;;;;;14.88;7.75;;;;;;;8.72;59.22;100239.59;5030016;28;20045;-77
2021/12/06 10:08:34;;;;;;;14.90;8.38;;;;;;;8.53;61.10;100231.97;5031208;28;20049;-77
2021/12/06 10:11:03;;;;;;;13.57;9.27;;;;;;;8.46;59.00;100236.88;5030262;28;20060;-77
2021/12/06 10:13:31;;;;;;;14.52;8.10;;;;;;;8.60;59.23;100231.69;5031017;28;20057;-77
2021/12/06 10:16:00;;;;;;;15.30;8.63;;;;;;;8.78;59.68;100222.09;5031172;28;20495;-77
2021/12/06 10:18:29;;;;;;;20.60;9.13;;;;;;;8.89;57.25;100220.16;5030869;28;20084;-77
2021/12/06 10:20:57;;;;;;;14.43;7.65;;;;;;;9.24;55.96;100217.59;5030089;28;20052;-77
2021/12/06 10:23:25;;;;;;;25.80;8.13;;;;;;;9.16;56.06;100218.16;5030950;28;20041;-77
2021/12/06 10:25:55;;;;;;;18.15;8.30;;;;;;;9.01;54.90;100206.22;5031057;28;20045;-77
2021/12/06 10:28:28;;;;;;;20.25;8.25;;;;;;;9.12;57.18;100205.09;5030579;28;20064;-77
2021/12/06 10:31:03;;;;;;;14.43;5.93;;;;;;;9.14;52.89;100207.50;5030050;28;20045;-77
2021/12/06 10:33:38;;;;;;;11.27;5.90;;;;;;;9.12;54.87;100207.81;5030212;28;20060;-77
2021/12/06 10:36:09;;;;;;;12.50;5.00;;;;;;;8.94;51.62;100211.16;5013653;28;20045;-77
2021/12/06 10:38:41;;;;;;;8.77;4.53;;;;;;;8.99;53.46;100205.66;5032201;28;20061;-77
2021/12/06 10:41:16;;;;;;;9.57;4.95;;;;;;;8.80;53.82;100203.53;5034417;28;20056;-77
2021/12/06 10:44:04;;;;;;;12.10;5.30;;;;;;;8.90;55.93;100205.41;5033962;28;20056;-78
2021/12/06 10:46:33;;;;;;;8.32;5.20;;;;;;;8.82;55.37;100203.28;5033946;28;20042;-78
2021/12/06 10:49:05;;;;;;;8.63;4.57;;;;;;;9.05;54.56;100210.00;5016560;28;20049;-78
2021/12/06 10:51:34;;;;;;;8.43;4.70;;;;;;;9.04;53.71;100208.38;5033405;28;20054;-78
2021/12/06 10:54:16;;;;;;;5.03;3.80;;;;;;;9.15;53.12;100211.91;5031664;28;20049;-78
2021/12/06 10:56:47;;;;;;;7.45;4.60;;;;;;;9.31;51.38;100211.81;5032283;28;20048;-78
2021/12/06 10:59:25;;;;;;;7.03;4.00;;;;;;;9.32;51.46;100210.72;5028952;28;20053;-78
2021/12/06 11:01:57;;;;;;;7.13;4.50;;;;;;;9.26;52.79;100201.75;5031396;28;20049;-78
2021/12/06 11:04:28;;;;;;;12.98;5.75;;;;;;;9.41;56.13;100201.69;5031577;28;20045;-78
2021/12/06 11:07:05;;;;;;;9.70;5.10;;;;;;;9.10;54.37;100201.78;5030183;28;20045;-77
2021/12/06 11:09:40;;;;;;;7.50;3.65;;;;;;;9.13;52.11;100197.69;5005839;28;20053;-78
2021/12/06 11:12:10;;;;;;;6.05;3.58;;;;;;;9.27;50.73;100203.38;5031622;28;20503;-78
2021/12/06 11:14:41;;;;;;;7.88;4.07;;;;;;;9.32;50.68;100197.88;5030399;28;20064;-79
2021/12/06 11:17:19;;;;;;;7.55;3.35;;;;;;;9.32;48.81;100202.53;5030589;28;20041;-79
2021/12/06 11:19:51;;;;;;;7.00;3.28;;;;;;;9.49;48.79;100196.72;5029620;28;20092;-79
2021/12/06 11:22:29;;;;;;;7.00;3.45;;;;;;;9.33;49.54;100204.19;5028006;28;20054;-78
2021/12/06 11:25:03;;;;;;;4.85;3.50;;;;;;;9.35;49.09;100205.53;5029947;28;21366;-76
2021/12/06 11:27:39;;;;;;;5.90;3.10;;;;;;;9.32;47.10;100202.53;5029893;28;20682;-77
2021/12/06 11:30:11;;;;;;;4.47;2.80;;;;;;;9.37;47.32;100203.34;5030410;28;20077;-77
2021/12/06 11:32:48;;;;;;;6.28;2.60;;;;;;;9.20;51.52;100195.50;5030626;28;20041;-77
2021/12/06 11:35:22;;;;;;;3.83;2.72;;;;;;;9.41;50.34;100196.22;5028935;28;20054;-78
2021/12/06 11:37:53;;;;;;;8.43;2.50;;;;;;;9.40;49.92;100194.56;5028052;28;20057;-77
2021/12/06 11:40:34;;;;;;;5.75;2.40;;;;;;;9.70;48.18;100191.94;5032353;28;20049;-78
2021/12/06 11:43:12;;;;;;;5.88;2.13;;;;;;;9.87;46.97;100188.00;5031773;28;20385;-77
2021/12/06 11:45:46;;;;;;;2.80;2.30;;;;;;;9.86;47.82;100189.91;5031513;28;20064;-77
2021/12/06 11:48:13;;;;;;;;;;;;;;;9.91;47.18;100191.78;5032723;28;20048;-77